createdAt,value
2019-02-05T00:01:42.577Z,18.90
2019-02-05T00:04:12.431Z,19.00
2019-02-05T00:06:42.034Z,19.57
2019-02-05T00:09:13.210Z,19.30
2019-02-05T00:11:43.105Z,20.00
2019-02-05T00:14:12.681Z,18.97
2019-02-05T00:16:42.622Z,20.00
2019-02-05T00:19:12.185Z,20.53
2019-02-05T00:21:41.772Z,20.40
2019-02-05T00:24:11.376Z,20.73
2019-02-05T00:26:40.885Z,21.23
2019-02-05T00:29:10.848Z,21.57
2019-02-05T00:31:40.425Z,22.23
2019-02-05T00:34:09.943Z,22.67
2019-02-05T00:36:39.509Z,22.23
2019-02-05T00:39:09.761Z,22.20
2019-02-05T00:41:39.368Z,22.73
2019-02-05T00:44:09.004Z,23.67
2019-02-05T00:46:38.534Z,22.57
2019-02-05T00:49:08.203Z,24.90
2019-02-05T00:51:37.821Z,23.60
2019-02-05T00:54:07.420Z,23.73
2019-02-05T00:56:36.938Z,25.40
2019-02-05T00:59:06.909Z,22.83
2019-02-05T01:01:36.506Z,23.70
2019-02-05T01:04:06.419Z,23.00
2019-02-05T01:06:35.954Z,22.93
2019-02-05T01:09:08.084Z,23.17
2019-02-05T01:11:37.683Z,22.93
2019-02-05T01:14:07.725Z,23.60
2019-02-05T01:16:37.311Z,21.80
2019-02-05T01:19:06.841Z,22.23
2019-02-05T01:21:36.503Z,22.63
2019-02-05T01:24:06.315Z,22.03
2019-02-05T01:26:36.002Z,22.10
2019-02-05T01:29:05.666Z,22.07
2019-02-05T01:31:35.186Z,22.53
2019-02-05T01:34:04.852Z,22.90
2019-02-05T01:36:34.454Z,22.60
2019-02-05T01:39:05.538Z,21.87
2019-02-05T01:41:35.352Z,22.93
2019-02-05T01:44:05.124Z,22.67
2019-02-05T01:46:34.738Z,23.23
2019-02-05T01:49:04.388Z,23.50
2019-02-05T01:51:33.981Z,22.47
2019-02-05T01:54:03.522Z,23.43
2019-02-05T01:56:40.332Z,22.50
2019-02-05T01:59:06.278Z,21.00
2019-02-05T02:01:36.071Z,17.73
2019-02-05T02:04:05.883Z,19.87
2019-02-05T02:06:35.329Z,21.33
2019-02-05T02:09:05.685Z,21.10
2019-02-05T02:11:35.124Z,18.70
2019-02-05T02:14:04.878Z,18.33
2019-02-05T02:16:34.317Z,17.27
2019-02-05T02:19:03.725Z,17.77
2019-02-05T02:21:33.156Z,18.97
2019-02-05T02:24:02.799Z,17.80
2019-02-05T02:26:32.224Z,18.87
2019-02-05T02:29:01.702Z,19.47
2019-02-05T02:31:31.156Z,20.30
2019-02-05T02:34:00.542Z,18.37
2019-02-05T02:36:29.949Z,20.17
2019-02-05T02:38:59.381Z,20.83
2019-02-05T02:41:28.742Z,20.20
2019-02-05T02:43:58.170Z,19.37
2019-02-05T02:46:27.545Z,19.27
2019-02-05T02:48:56.974Z,19.93
2019-02-05T02:51:26.405Z,18.27
2019-02-05T02:53:56.166Z,20.03
2019-02-05T02:56:25.552Z,20.23
2019-02-05T02:58:54.977Z,18.43
2019-02-05T03:01:24.416Z,18.43
2019-02-05T03:03:53.810Z,19.80
2019-02-05T03:06:23.225Z,19.93
2019-02-05T03:08:52.601Z,18.93
2019-02-05T03:11:22.026Z,18.80
2019-02-05T03:13:51.405Z,19.87
2019-02-05T03:16:20.853Z,21.67
2019-02-05T03:18:50.250Z,18.73
2019-02-05T03:21:19.678Z,20.23
2019-02-05T03:23:49.078Z,18.47
2019-02-05T03:26:18.398Z,21.40
2019-02-05T03:28:47.755Z,20.80
2019-02-05T03:31:17.420Z,21.77
2019-02-05T03:33:46.849Z,20.90
2019-02-05T03:36:16.290Z,20.53
2019-02-05T03:38:45.705Z,20.90
2019-02-05T03:41:15.129Z,20.67
2019-02-05T03:43:44.853Z,21.90
2019-02-05T03:46:15.529Z,21.53
2019-02-05T03:48:46.819Z,22.73
2019-02-05T03:51:58.993Z,21.97
2019-02-05T03:54:57.167Z,22.80
2019-02-05T03:58:29.103Z,23.23
2019-02-05T04:01:20.833Z,23.07
2019-02-05T04:04:20.864Z,22.67
2019-02-05T04:07:02.677Z,24.13
2019-02-05T04:10:40.937Z,24.63
2019-02-05T04:13:33.726Z,23.67
2019-02-05T04:16:46.901Z,24.10
2019-02-05T04:19:28.852Z,25.30
2019-02-05T04:22:15.959Z,26.27
2019-02-05T04:25:20.930Z,28.43
2019-02-05T04:28:09.269Z,27.33
2019-02-05T04:31:08.751Z,27.23
2019-02-05T04:33:59.670Z,28.80
2019-02-05T04:36:57.480Z,30.43
2019-02-05T04:39:41.196Z,30.73
2019-02-05T04:43:04.018Z,31.53
2019-02-05T04:46:19.093Z,30.00
2019-02-05T04:49:03.433Z,29.17
2019-02-05T04:51:59.470Z,30.97
2019-02-05T04:54:53.954Z,30.80
2019-02-05T04:57:58.041Z,32.97
2019-02-05T05:00:56.654Z,30.10
2019-02-05T05:04:09.515Z,30.60
2019-02-05T05:07:31.513Z,30.80
2019-02-05T05:10:00.960Z,29.77
2019-02-05T05:12:30.739Z,28.10
2019-02-05T05:15:00.750Z,26.50
2019-02-05T05:17:30.141Z,27.40
2019-02-05T05:19:59.933Z,29.17
2019-02-05T05:22:29.387Z,28.27
2019-02-05T05:24:59.679Z,27.77
2019-02-05T05:27:29.624Z,28.40
2019-02-05T05:29:59.022Z,29.50
2019-02-05T05:32:28.680Z,28.17
2019-02-05T05:34:58.127Z,30.10
2019-02-05T05:37:27.501Z,34.13
2019-02-05T05:39:56.848Z,30.97
2019-02-05T05:42:27.383Z,31.60
2019-02-05T05:44:56.727Z,31.53
2019-02-05T05:47:26.152Z,31.93
2019-02-05T05:49:55.524Z,32.70
2019-02-05T05:52:24.926Z,33.50
2019-02-05T05:54:54.373Z,31.50
2019-02-05T05:57:23.815Z,32.43
2019-02-05T05:59:53.287Z,35.03
2019-02-05T06:02:22.720Z,34.87
2019-02-05T06:04:52.093Z,35.67
2019-02-05T06:07:21.525Z,34.57
2019-02-05T06:09:50.878Z,34.67
2019-02-05T06:12:20.236Z,37.63
2019-02-05T06:14:49.979Z,39.27
2019-02-05T06:17:19.413Z,35.43
2019-02-05T06:19:48.764Z,39.07
2019-02-05T06:22:18.428Z,35.13
2019-02-05T06:24:47.834Z,33.87
2019-02-05T06:27:17.313Z,33.23
2019-02-05T06:29:47.079Z,33.13
2019-02-05T06:32:16.427Z,30.90
2019-02-05T06:34:45.863Z,31.23
2019-02-05T06:37:15.236Z,34.10
2019-02-05T06:39:44.602Z,33.07
2019-02-05T06:42:13.960Z,32.80
2019-02-05T06:44:43.304Z,34.67
2019-02-05T06:47:12.745Z,35.87
2019-02-05T06:49:42.116Z,35.33
2019-02-05T06:52:11.575Z,33.10
2019-02-05T06:54:40.922Z,33.10
2019-02-05T06:57:10.428Z,33.03
2019-02-05T06:59:39.799Z,33.87
2019-02-05T07:02:09.682Z,32.83
2019-02-05T07:04:39.218Z,33.17
2019-02-05T07:07:08.664Z,31.80
2019-02-05T07:09:38.064Z,31.17
2019-02-05T07:12:07.539Z,32.53
2019-02-05T07:14:36.917Z,29.80
2019-02-05T07:17:06.617Z,31.77
2019-02-05T07:19:36.005Z,32.10
2019-02-05T07:22:05.646Z,30.20
2019-02-05T07:24:34.997Z,31.07
2019-02-05T07:27:04.536Z,33.50
2019-02-05T07:29:33.913Z,31.93
2019-02-05T07:32:03.257Z,31.27
2019-02-05T07:34:32.674Z,31.00
2019-02-05T07:37:02.038Z,33.93
2019-02-05T07:39:31.387Z,33.17
2019-02-05T07:42:00.758Z,33.63
2019-02-05T07:44:30.093Z,31.60
2019-02-05T07:46:59.454Z,33.63
2019-02-05T07:49:28.817Z,31.27
2019-02-05T07:51:58.605Z,32.30
2019-02-05T07:54:27.951Z,28.97
2019-02-05T07:56:57.340Z,33.37
2019-02-05T07:59:26.786Z,29.53
2019-02-05T08:01:56.159Z,30.87
2019-02-05T08:04:25.584Z,32.60
2019-02-05T08:06:55.049Z,31.37
2019-02-05T08:09:24.719Z,33.63
2019-02-05T08:11:54.099Z,31.30
2019-02-05T08:14:23.784Z,32.00
2019-02-05T08:16:53.237Z,27.90
2019-02-05T08:19:22.588Z,22.70
2019-02-05T08:21:52.027Z,21.07
2019-02-05T08:24:21.480Z,21.83
2019-02-05T08:26:51.420Z,20.03
2019-02-05T08:29:21.913Z,21.20
2019-02-05T08:31:51.412Z,21.50
2019-02-05T08:34:22.429Z,19.87
2019-02-05T08:36:51.845Z,19.57
2019-02-05T08:39:21.214Z,19.17
2019-02-05T08:41:50.638Z,18.87
2019-02-05T08:44:20.061Z,18.23
2019-02-05T08:46:49.581Z,18.53
2019-02-05T08:49:18.963Z,17.40
2019-02-05T08:51:48.435Z,19.63
2019-02-05T08:54:17.941Z,20.23
2019-02-05T08:56:47.371Z,21.23
2019-02-05T08:59:17.183Z,18.23
2019-02-05T09:01:46.551Z,18.30
2019-02-05T09:04:15.978Z,17.60
2019-02-05T09:06:45.405Z,20.00
2019-02-05T09:09:14.849Z,19.17
2019-02-05T09:11:44.291Z,19.50
2019-02-05T09:14:13.666Z,20.90
2019-02-05T09:16:43.308Z,21.70
2019-02-05T09:19:12.904Z,22.87
2019-02-05T09:21:42.500Z,22.17
2019-02-05T09:24:11.955Z,17.13
2019-02-05T09:26:41.398Z,21.23
2019-02-05T09:29:10.823Z,22.60
2019-02-05T09:31:40.647Z,22.70
2019-02-05T09:34:10.044Z,27.17
2019-02-05T09:36:39.418Z,25.07
2019-02-05T09:39:08.946Z,25.93
2019-02-05T09:41:38.373Z,23.77
2019-02-05T09:44:07.731Z,27.27
2019-02-05T09:46:37.201Z,20.97
2019-02-05T09:49:06.850Z,23.57
2019-02-05T09:51:36.358Z,22.43
2019-02-05T09:54:05.821Z,22.53
2019-02-05T09:56:35.168Z,23.03
2019-02-05T09:59:04.883Z,25.53
2019-02-05T10:01:34.406Z,24.87
2019-02-05T10:04:04.199Z,23.03
2019-02-05T10:06:33.635Z,23.37
2019-02-05T10:09:03.291Z,19.33
2019-02-05T10:11:32.645Z,19.83
2019-02-05T10:14:02.026Z,22.97
2019-02-05T10:16:31.430Z,21.23
2019-02-05T10:19:00.993Z,18.60
2019-02-05T10:21:30.676Z,20.30
2019-02-05T10:24:00.194Z,22.30
2019-02-05T10:26:29.669Z,21.67
2019-02-05T10:28:59.042Z,23.93
2019-02-05T10:31:28.484Z,22.70
2019-02-05T10:33:57.933Z,22.83
2019-02-05T10:36:27.661Z,24.77
2019-02-05T10:38:57.076Z,24.97
2019-02-05T10:41:26.517Z,27.63
2019-02-05T10:43:55.866Z,26.97
2019-02-05T10:46:25.292Z,28.13
2019-02-05T10:48:54.659Z,26.37
2019-02-05T10:51:24.157Z,27.63
2019-02-05T10:53:53.913Z,25.90
2019-02-05T10:56:23.374Z,27.37
2019-02-05T10:58:53.177Z,24.83
2019-02-05T11:01:22.563Z,25.67
2019-02-05T11:03:52.075Z,26.27
2019-02-05T11:06:21.444Z,25.90
2019-02-05T11:08:50.803Z,26.10
2019-02-05T11:11:20.177Z,28.00
2019-02-05T11:13:49.573Z,26.17
2019-02-05T11:16:18.933Z,27.37
2019-02-05T11:18:48.357Z,27.63
2019-02-05T11:21:17.709Z,26.63
2019-02-05T11:23:47.156Z,23.67
2019-02-05T11:26:17.328Z,26.33
2019-02-05T11:28:47.063Z,24.17
2019-02-05T11:31:16.816Z,21.70
2019-02-05T11:33:46.628Z,25.37
2019-02-05T11:36:16.476Z,25.07
2019-02-05T11:38:46.210Z,23.17
2019-02-05T11:41:15.713Z,23.03
2019-02-05T11:43:45.166Z,21.93
2019-02-05T11:46:14.700Z,21.97
2019-02-05T11:48:44.128Z,23.80
2019-02-05T11:51:13.755Z,23.17
2019-02-05T11:53:43.249Z,24.23
2019-02-05T11:56:12.756Z,21.57
2019-02-05T11:58:42.291Z,24.77
2019-02-05T12:01:16.170Z,28.60
2019-02-05T12:03:45.665Z,27.00
2019-02-05T12:06:15.102Z,25.47
2019-02-05T12:08:44.686Z,27.33
2019-02-05T12:11:14.122Z,27.87
2019-02-05T12:13:43.761Z,26.60
2019-02-05T12:16:13.298Z,28.27
2019-02-05T12:18:42.728Z,26.53
2019-02-05T12:21:12.310Z,26.37
2019-02-05T12:23:41.751Z,25.17
2019-02-05T12:26:11.252Z,24.13
2019-02-05T12:28:40.698Z,25.23
2019-02-05T12:31:10.301Z,22.73
2019-02-05T12:33:39.653Z,24.47
2019-02-05T12:36:09.109Z,24.53
2019-02-05T12:38:38.550Z,24.50
2019-02-05T12:41:07.914Z,25.97
2019-02-05T12:43:37.295Z,24.83
2019-02-05T12:46:07.029Z,24.27
2019-02-05T12:48:36.426Z,25.40
2019-02-05T12:51:06.342Z,25.03
2019-02-05T12:53:35.709Z,25.07
2019-02-05T12:56:05.431Z,27.10
2019-02-05T12:58:34.859Z,26.07
2019-02-05T13:01:04.285Z,24.70
2019-02-05T13:03:33.667Z,23.97
2019-02-05T13:06:03.087Z,26.20
2019-02-05T13:08:32.530Z,23.97
2019-02-05T13:11:01.893Z,24.07
2019-02-05T13:13:31.446Z,23.93
2019-02-05T13:16:00.958Z,23.80
2019-02-05T13:18:30.421Z,26.27
2019-02-05T13:20:59.897Z,24.50
2019-02-05T13:23:29.237Z,24.40
2019-02-05T13:25:58.764Z,24.60
2019-02-05T13:28:28.146Z,27.77
2019-02-05T13:31:07.650Z,28.30
2019-02-05T13:33:30.640Z,27.80
2019-02-05T13:36:00.004Z,27.17
2019-02-05T13:38:29.441Z,27.63
2019-02-05T13:40:58.903Z,27.23
2019-02-05T13:43:28.401Z,26.40
2019-02-05T13:45:57.919Z,27.33
2019-02-05T13:48:27.271Z,27.83
2019-02-05T13:50:56.695Z,27.00
2019-02-05T13:53:26.059Z,27.23
2019-02-05T13:55:55.563Z,25.80
2019-02-05T13:58:24.910Z,27.23
2019-02-05T14:00:55.384Z,28.33
2019-02-05T14:03:24.806Z,27.90
2019-02-05T14:05:54.189Z,29.23
2019-02-05T14:08:23.624Z,25.57
2019-02-05T14:10:53.390Z,26.73
2019-02-05T14:13:22.748Z,26.73
2019-02-05T14:15:53.229Z,26.90
2019-02-05T14:18:23.241Z,29.03
2019-02-05T14:20:52.759Z,27.97
2019-02-05T14:23:22.201Z,28.30
2019-02-05T14:25:51.549Z,28.90
2019-02-05T14:28:20.905Z,25.50
2019-02-05T14:30:57.538Z,27.40
2019-02-05T14:33:28.813Z,28.83
2019-02-05T14:35:58.249Z,29.30
2019-02-05T14:38:27.742Z,28.23
2019-02-05T14:40:57.181Z,29.43
2019-02-05T14:43:26.824Z,27.37
2019-02-05T14:45:56.283Z,27.63
2019-02-05T14:48:25.829Z,29.63
2019-02-05T14:50:55.259Z,28.53
2019-02-05T14:53:24.616Z,28.23
2019-02-05T14:55:54.062Z,28.57
2019-02-05T14:58:23.695Z,29.37
2019-02-05T15:00:53.119Z,29.73
2019-02-05T15:03:22.482Z,27.67
2019-02-05T15:05:51.853Z,29.23
2019-02-05T15:08:21.627Z,28.37
2019-02-05T15:10:51.019Z,27.37
2019-02-05T15:13:20.533Z,30.73
2019-02-05T15:15:50.006Z,29.30
2019-02-05T15:18:23.081Z,30.73
2019-02-05T15:20:52.512Z,31.27
2019-02-05T15:23:22.298Z,29.13
2019-02-05T15:25:52.033Z,29.77
2019-02-05T15:28:21.477Z,28.27
2019-02-05T15:30:51.633Z,32.93
2019-02-05T15:33:38.825Z,29.33
2019-02-05T15:36:15.168Z,30.13
2019-02-05T15:38:44.601Z,29.27
2019-02-05T15:41:13.991Z,31.10
2019-02-05T15:43:43.481Z,30.07
2019-02-05T15:46:12.897Z,29.63
2019-02-05T15:48:42.242Z,29.03
2019-02-05T15:51:12.002Z,29.33
2019-02-05T15:53:41.428Z,27.57
2019-02-05T15:56:10.796Z,31.73
2019-02-05T15:58:40.230Z,30.67
2019-02-05T16:01:09.700Z,33.17
2019-02-05T16:03:39.057Z,31.60
2019-02-05T16:06:08.491Z,30.37
2019-02-05T16:08:37.898Z,31.17
2019-02-05T16:11:07.327Z,29.17
2019-02-05T16:13:36.688Z,29.10
2019-02-05T16:16:06.461Z,31.10
2019-02-05T16:18:35.814Z,28.63
2019-02-05T16:21:05.266Z,30.80
2019-02-05T16:23:34.621Z,30.87
2019-02-05T16:26:04.213Z,30.30
2019-02-05T16:28:33.582Z,28.03
2019-02-05T16:31:03.023Z,30.37
2019-02-05T16:33:32.449Z,24.97
2019-02-05T16:36:01.869Z,29.53
2019-02-05T16:38:31.313Z,26.20
2019-02-05T16:41:00.686Z,27.83
2019-02-05T16:43:30.137Z,29.17
2019-02-05T16:45:59.489Z,29.80
2019-02-05T16:48:28.917Z,29.97
2019-02-05T16:50:58.435Z,29.47
2019-02-05T16:53:27.863Z,31.33
2019-02-05T16:55:57.211Z,31.50
2019-02-05T16:58:26.605Z,31.27
2019-02-05T17:00:56.192Z,29.30
2019-02-05T17:03:25.603Z,28.90
2019-02-05T17:05:55.222Z,29.70
2019-02-05T17:08:24.602Z,29.53
2019-02-05T17:10:53.956Z,31.60
2019-02-05T17:13:23.505Z,28.57
2019-02-05T17:15:52.924Z,31.87
2019-02-05T17:18:24.042Z,28.97
2019-02-05T17:20:53.733Z,44.23
2019-02-05T17:23:23.291Z,31.20
2019-02-05T17:25:52.607Z,29.83
2019-02-05T17:28:21.976Z,28.30
2019-02-05T17:30:51.336Z,29.90
2019-02-05T17:33:20.813Z,25.43
2019-02-05T17:35:50.221Z,27.50
2019-02-05T17:38:19.717Z,28.83
2019-02-05T17:40:49.091Z,27.80
2019-02-05T17:43:18.506Z,28.70
2019-02-05T17:45:48.085Z,30.33
2019-02-05T17:48:18.331Z,30.23
2019-02-05T17:50:47.736Z,29.93
2019-02-05T17:53:17.125Z,29.93
2019-02-05T17:55:46.559Z,29.90
2019-02-05T17:58:16.291Z,31.07
2019-02-05T18:00:50.748Z,29.07
2019-02-05T18:03:20.556Z,30.80
2019-02-05T18:05:50.265Z,29.37
2019-02-05T18:08:19.612Z,30.83
2019-02-05T18:10:49.100Z,29.57
2019-02-05T18:13:18.515Z,35.50
2019-02-05T18:15:47.965Z,34.03
2019-02-05T18:18:17.772Z,33.57
2019-02-05T18:20:47.591Z,32.30
2019-02-05T18:23:17.024Z,33.07
2019-02-05T18:25:46.524Z,32.60
2019-02-05T18:28:15.871Z,32.00
2019-02-05T18:30:45.308Z,31.20
2019-02-05T18:33:15.007Z,33.27
2019-02-05T18:35:44.434Z,30.30
2019-02-05T18:38:15.082Z,31.40
2019-02-05T18:40:44.474Z,32.40
2019-02-05T18:43:13.892Z,31.33
2019-02-05T18:45:43.318Z,31.70
2019-02-05T18:48:12.909Z,34.40
2019-02-05T18:50:42.402Z,40.03
2019-02-05T18:53:12.083Z,33.40
2019-02-05T18:55:41.685Z,34.93
2019-02-05T18:58:11.135Z,32.27
2019-02-05T19:00:41.978Z,32.13
2019-02-05T19:03:15.669Z,32.60
2019-02-05T19:05:42.788Z,31.67
2019-02-05T19:08:12.338Z,32.63
2019-02-05T19:10:41.788Z,33.53
2019-02-05T19:13:11.204Z,35.87
2019-02-05T19:15:40.668Z,33.67
2019-02-05T19:18:10.233Z,35.30
2019-02-05T19:20:39.646Z,34.60
2019-02-05T19:23:09.749Z,36.43
2019-02-05T19:26:04.491Z,33.57
2019-02-05T19:28:36.211Z,29.47
2019-02-05T19:31:25.030Z,33.87
2019-02-05T19:33:54.444Z,30.10
2019-02-05T19:36:23.806Z,30.83
2019-02-05T19:38:53.235Z,33.10
2019-02-05T19:41:22.884Z,31.47
2019-02-05T19:43:52.293Z,31.27
2019-02-05T19:46:39.572Z,30.73
2019-02-05T19:49:34.059Z,32.13
2019-02-05T19:52:03.481Z,32.37
2019-02-05T19:54:32.820Z,33.20
2019-02-05T19:57:02.253Z,30.27
2019-02-05T19:59:31.605Z,35.57
2019-02-05T20:02:01.294Z,28.70
2019-02-05T20:04:30.686Z,29.90
2019-02-05T20:07:00.119Z,30.60
2019-02-05T20:09:29.554Z,30.73
2019-02-05T20:11:58.918Z,32.17
2019-02-05T20:14:28.259Z,31.33
2019-02-05T20:16:57.712Z,32.47
2019-02-05T20:19:27.176Z,32.20
2019-02-05T20:21:56.558Z,29.83
2019-02-05T20:24:25.984Z,33.03
2019-02-05T20:26:55.334Z,33.70
2019-02-05T20:29:24.723Z,31.13
2019-02-05T20:31:54.069Z,33.47
2019-02-05T20:34:23.724Z,34.27
2019-02-05T20:36:53.171Z,33.00
2019-02-05T20:39:22.557Z,36.80
2019-02-05T20:41:52.714Z,33.90
2019-02-05T20:44:22.193Z,37.80
2019-02-05T20:46:51.566Z,41.00
2019-02-05T20:49:20.982Z,34.63
2019-02-05T20:51:50.594Z,34.63
2019-02-05T20:54:20.011Z,36.67
2019-02-05T20:56:49.355Z,32.97
2019-02-05T20:59:18.830Z,32.37
2019-02-05T21:01:48.172Z,31.77
2019-02-05T21:04:17.614Z,38.03
2019-02-05T21:06:47.423Z,32.67
2019-02-05T21:09:21.118Z,33.63
2019-02-05T21:11:50.551Z,29.57
2019-02-05T21:14:19.990Z,27.83
2019-02-05T21:16:49.407Z,28.83
2019-02-05T21:19:18.868Z,29.13
2019-02-05T21:21:48.709Z,30.43
2019-02-05T21:24:18.150Z,29.97
2019-02-05T21:26:47.593Z,28.63
2019-02-05T21:29:17.023Z,32.83
2019-02-05T21:31:46.506Z,32.67
2019-02-05T21:34:16.355Z,29.23
2019-02-05T21:36:45.776Z,31.37
2019-02-05T21:39:15.341Z,30.53
2019-02-05T21:41:44.792Z,29.77
2019-02-05T21:44:14.226Z,33.87
2019-02-05T21:46:43.700Z,30.77
2019-02-05T21:49:13.327Z,31.23
2019-02-05T21:51:42.890Z,33.17
2019-02-05T21:54:13.170Z,30.07
2019-02-05T21:56:42.555Z,30.40
2019-02-05T21:59:11.937Z,30.87
2019-02-05T22:01:41.343Z,29.87
2019-02-05T22:04:10.759Z,32.83
2019-02-05T22:06:40.153Z,31.77
2019-02-05T22:09:12.041Z,31.40
2019-02-05T22:11:41.496Z,29.47
2019-02-05T22:14:10.962Z,28.90
2019-02-05T22:16:40.380Z,30.00
2019-02-05T22:19:10.176Z,28.43
2019-02-05T22:21:39.603Z,30.90
2019-02-05T22:24:09.034Z,32.27
2019-02-05T22:26:38.525Z,32.37
2019-02-05T22:29:08.272Z,32.37
2019-02-05T22:31:38.036Z,36.13
2019-02-05T22:34:07.795Z,32.03
2019-02-05T22:36:37.201Z,31.53
2019-02-05T22:39:08.706Z,27.87
2019-02-05T22:41:38.088Z,28.63
2019-02-05T22:44:07.505Z,30.73
2019-02-05T22:46:36.857Z,29.83
2019-02-05T22:49:06.392Z,30.33
2019-02-05T22:51:35.810Z,31.10
2019-02-05T22:54:05.339Z,31.60
2019-02-05T22:56:34.764Z,32.00
2019-02-05T22:59:04.878Z,31.20
2019-02-05T23:01:50.038Z,32.17
2019-02-05T23:04:50.370Z,32.87
2019-02-05T23:07:15.514Z,36.00
2019-02-05T23:10:26.999Z,33.50
2019-02-05T23:12:59.774Z,33.87
2019-02-05T23:15:29.412Z,35.17
2019-02-05T23:17:58.902Z,31.47
2019-02-05T23:20:28.615Z,30.20
2019-02-05T23:22:58.132Z,31.17
2019-02-05T23:25:27.456Z,30.77
2019-02-05T23:27:56.906Z,31.00
2019-02-05T23:30:27.847Z,31.13
2019-02-05T23:32:57.434Z,33.37
2019-02-05T23:35:27.234Z,34.03
2019-02-05T23:37:56.591Z,31.37
2019-02-05T23:40:25.962Z,33.60
2019-02-05T23:42:55.467Z,32.10
2019-02-05T23:45:24.888Z,30.97
2019-02-05T23:47:54.245Z,30.23
2019-02-05T23:50:23.871Z,29.90
2019-02-05T23:52:53.308Z,32.60
2019-02-05T23:55:22.643Z,34.30
2019-02-05T23:57:52.012Z,32.00
